Time;durP1;ratioP1;P1;durP2;ratioP2;P2;SDS_P1;SDS_P2;PMS_P1;PMS_P2;Temp;Humidity;BMP_temperature;BMP_pressure;BME280_temperature;BME280_humidity;BME280_pressure;Samples;Min_cycle;Max_cycle;Signal;HPM_P1;HPM_P2
2023/10/07 00:02:12;;;;;;;6.97;2.60;;;;;;;22.38;58.28;102045.09;5004546;28;20037;-48
2023/10/07 00:04:41;;;;;;;7.15;2.85;;;;;;;22.36;58.30;102047.88;5003171;28;21849;-48
2023/10/07 00:07:10;;;;;;;7.28;2.63;;;;;;;22.36;58.48;102050.59;5003803;28;20024;-51
2023/10/07 00:09:39;;;;;;;8.68;3.30;;;;;;;22.35;58.50;102029.09;5003377;28;20041;-48
2023/10/07 00:12:05;;;;;;;5.88;2.83;;;;;;;22.35;58.37;102035.31;5000728;28;20073;-49
2023/10/07 00:14:30;;;;;;;6.68;2.83;;;;;;;22.35;58.40;102031.78;5002001;28;20333;-48
2023/10/07 00:16:57;;;;;;;8.15;2.90;;;;;;;22.34;58.12;102032.75;5002047;28;20504;-47
2023/10/07 00:19:23;;;;;;;6.28;2.88;;;;;;;22.38;58.36;102027.06;5003974;28;20374;-47
2023/10/07 00:22:08;;;;;;;6.63;2.90;;;;;;;22.34;58.48;102021.97;5002945;28;20044;-44
2023/10/07 00:24:37;;;;;;;6.40;2.85;;;;;;;22.35;58.49;102019.13;5003359;28;20156;-45
2023/10/07 00:27:05;;;;;;;7.13;2.83;;;;;;;22.31;58.48;102011.41;5003331;28;20548;-45
2023/10/07 00:29:41;;;;;;;7.90;2.90;;;;;;;22.30;58.49;101998.88;5002712;28;20045;-47
2023/10/07 00:32:07;;;;;;;6.75;2.83;;;;;;;22.32;58.62;102005.03;5003032;28;20337;-44
2023/10/07 00:34:32;;;;;;;6.65;2.72;;;;;;;22.29;58.57;102010.66;5015647;28;20489;-49
2023/10/07 00:36:58;;;;;;;7.75;2.90;;;;;;;22.32;58.58;102010.44;5003974;28;20040;-49
2023/10/07 00:39:24;;;;;;;9.73;3.00;;;;;;;22.29;58.72;102003.44;5004157;28;20037;-44
2023/10/07 00:41:58;;;;;;;7.28;2.78;;;;;;;22.30;58.68;102004.28;5005452;28;20443;-44
2023/10/07 00:44:29;;;;;;;5.75;2.92;;;;;;;22.32;58.69;102008.59;5001766;28;20033;-45
2023/10/07 00:52:24;;;;;;;7.72;2.95;;;;;;;22.35;58.29;102032.63;5004047;28;20087;-49
2023/10/07 00:54:57;;;;;;;7.03;2.63;;;;;;;22.37;58.22;102027.16;5003497;28;20743;-44
2023/10/07 00:57:35;;;;;;;6.35;3.00;;;;;;;22.34;58.44;102024.66;5002257;28;20049;-48
2023/10/07 01:00:30;;;;;;;7.30;2.75;;;;;;;22.31;58.55;102031.16;5003173;28;20540;-45
2023/10/07 01:03:56;;;;;;;6.88;2.90;;;;;;;22.31;58.71;102036.53;4999826;28;20037;-45
2023/10/07 01:06:09;;;;;;;6.45;2.88;;;;;;;22.30;58.63;102034.81;5006010;28;21558;-46
2023/10/07 01:08:50;;;;;;;8.20;2.80;;;;;;;22.32;58.35;102032.03;5003041;28;20121;-45
2023/10/07 01:13:48;;;;;;;6.70;2.70;;;;;;;22.31;58.42;102020.34;5002463;28;20037;-44
2023/10/07 01:16:24;;;;;;;7.25;2.85;;;;;;;22.32;58.24;102016.69;5002522;28;20519;-46
2023/10/07 01:18:50;;;;;;;5.22;2.63;;;;;;;22.34;58.21;102022.84;5003037;28;20033;-44
2023/10/07 01:21:31;;;;;;;5.55;2.60;;;;;;;22.32;58.59;102030.19;5002593;28;20033;-52
2023/10/07 01:23:58;;;;;;;6.72;2.38;;;;;;;22.30;58.34;102029.41;5002145;28;20028;-49
2023/10/07 01:26:29;;;;;;;7.13;2.90;;;;;;;22.32;58.63;102021.22;5016619;28;20037;-46
2023/10/07 01:29:07;;;;;;;;;;;;;;;22.32;58.67;102021.22;5014267;28;20049;-44
2023/10/07 01:31:35;;;;;;;7.55;2.95;;;;;;;22.31;58.74;102025.75;5001354;28;20198;-48
2023/10/07 01:34:08;;;;;;;8.15;3.22;;;;;;;22.29;58.97;102016.94;5000263;28;20459;-49
2023/10/07 01:36:35;;;;;;;6.38;2.75;;;;;;;22.28;58.64;102015.22;5000589;28;20044;-46
2023/10/07 01:39:01;;;;;;;6.85;2.53;;;;;;;22.27;59.06;102011.63;5002640;28;20053;-44
2023/10/07 01:41:31;;;;;;;6.95;2.78;;;;;;;22.29;58.56;102007.97;5002931;28;20055;-47
2023/10/07 01:43:59;;;;;;;8.48;2.90;;;;;;;22.30;58.69;102009.69;5002496;28;20139;-45
2023/10/07 01:46:28;;;;;;;9.00;3.30;;;;;;;22.26;58.92;102017.16;5002998;28;20331;-44
2023/10/07 01:48:57;;;;;;;6.22;2.65;;;;;;;22.27;58.71;102013.47;5001893;28;20704;-48
2023/10/07 01:51:27;;;;;;;8.15;2.72;;;;;;;22.25;58.91;102005.50;5003737;28;20300;-44
2023/10/07 01:53:56;;;;;;;6.53;2.92;;;;;;;22.25;58.94;102012.72;5001510;28;20037;-48
2023/10/07 01:56:22;;;;;;;6.97;2.92;;;;;;;22.27;59.01;102008.09;5002052;28;20029;-48
2023/10/07 01:58:48;;;;;;;6.80;2.60;;;;;;;22.29;58.75;101997.16;5002679;28;20955;-47
2023/10/07 02:01:16;;;;;;;6.45;2.55;;;;;;;22.34;58.81;102012.03;5002157;28;20814;-45
2023/10/07 02:03:45;;;;;;;6.95;2.80;;;;;;;22.44;58.50;102004.13;5002316;28;20445;-44
2023/10/07 02:06:11;;;;;;;5.50;2.70;;;;;;;22.51;58.19;101991.03;5002395;28;20029;-49
2023/10/07 02:08:37;;;;;;;6.57;2.72;;;;;;;22.54;57.97;101998.88;5001466;28;20744;-47
2023/10/07 02:11:05;;;;;;;5.80;2.42;;;;;;;22.54;58.17;102002.41;5001913;28;20041;-47
2023/10/07 02:13:31;;;;;;;5.70;2.78;;;;;;;22.52;58.34;101998.13;5034177;28;20033;-51
2023/10/07 02:15:56;;;;;;;8.63;3.05;;;;;;;;;;5017554;28;20025;-49
2023/10/07 02:18:22;;;;;;;6.43;2.75;;;;;;;22.53;58.10;101997.16;5001994;28;20130;-52
2023/10/07 02:21:10;;;;;;;7.18;2.80;;;;;;;22.55;58.50;102011.41;5002615;28;20527;-50
2023/10/07 02:23:37;;;;;;;7.03;2.60;;;;;;;;;;5001704;28;20084;-49
2023/10/07 02:26:24;;;;;;;7.32;2.70;;;;;;;22.50;58.87;102008.19;5002864;28;20091;-51
2023/10/07 02:28:52;;;;;;;6.78;2.75;;;;;;;22.47;58.68;102011.13;5002564;28;20052;-46
2023/10/07 02:31:22;;;;;;;5.82;2.70;;;;;;;22.47;58.85;102016.50;5002049;28;21770;-43
2023/10/07 02:33:53;;;;;;;5.60;2.75;;;;;;;22.45;58.92;102005.00;5001638;28;20870;-46
2023/10/07 02:36:31;;;;;;;6.20;2.87;;;;;;;22.44;59.25;102003.25;5005366;28;20576;-44
2023/10/07 02:39:18;;;;;;;7.03;2.70;;;;;;;22.39;59.36;101984.72;5005907;28;20028;-45
2023/10/07 02:41:47;;;;;;;5.10;2.50;;;;;;;22.36;59.10;101985.81;5005760;28;20554;-46
2023/10/07 02:44:27;;;;;;;9.35;2.97;;;;;;;22.37;59.38;101986.69;5005401;28;20076;-45
2023/10/07 02:46:53;;;;;;;6.07;2.80;;;;;;;22.35;59.47;101983.22;5021352;28;20311;-50
2023/10/07 02:49:22;;;;;;;6.88;2.70;;;;;;;22.36;59.50;101983.13;5004423;28;20745;-51
2023/10/07 02:51:55;;;;;;;9.45;2.97;;;;;;;22.35;59.50;101977.81;5005374;28;20033;-45
2023/10/07 02:54:22;;;;;;;7.82;2.60;;;;;;;22.33;59.65;101982.47;5005368;28;20123;-49
2023/10/07 02:56:55;;;;;;;9.00;3.17;;;;;;;22.35;59.12;101986.75;5005276;28;20041;-49
2023/10/07 02:59:28;;;;;;;7.78;2.80;;;;;;;22.34;59.33;101981.47;5004035;28;20033;-48
2023/10/07 03:02:12;;;;;;;6.20;3.00;;;;;;;22.32;59.64;101980.75;5005368;28;20399;-50
2023/10/07 03:04:42;;;;;;;8.32;2.85;;;;;;;22.33;59.56;101987.84;5005094;28;20036;-44
2023/10/07 03:07:14;;;;;;;6.88;2.80;;;;;;;22.31;59.52;101974.47;5005483;28;20041;-46
2023/10/07 03:09:51;;;;;;;6.88;2.83;;;;;;;22.30;59.79;101975.47;5004396;28;20469;-44
2023/10/07 03:12:27;;;;;;;8.70;3.20;;;;;;;22.32;59.42;101992.41;5003534;28;20035;-45
2023/10/07 03:14:55;;;;;;;8.25;2.78;;;;;;;22.30;59.64;101988.94;5005058;28;20049;-44
2023/10/07 03:17:20;;;;;;;9.25;2.70;;;;;;;22.31;59.83;101992.53;5005471;28;20301;-44
2023/10/07 03:20:27;;;;;;;6.65;2.80;;;;;;;22.29;59.80;101987.25;5003890;28;20037;-43
2023/10/07 03:22:43;;;;;;;7.68;2.78;;;;;;;22.28;60.01;101990.91;5004049;28;20590;-50
2023/10/07 03:25:08;;;;;;;6.40;2.78;;;;;;;22.31;60.00;101987.97;5004561;28;20753;-44
2023/10/07 03:27:39;;;;;;;8.45;3.00;;;;;;;22.29;60.27;101973.75;5004467;28;20077;-45
2023/10/07 03:30:15;;;;;;;9.18;3.05;;;;;;;22.29;59.89;101979.16;5003444;28;20041;-45
2023/10/07 03:32:57;;;;;;;7.18;2.83;;;;;;;22.30;59.83;101980.00;5005010;28;20047;-44
2023/10/07 03:35:59;;;;;;;5.20;2.55;;;;;;;22.31;59.70;101979.88;5004111;28;20051;-44
2023/10/07 03:38:26;;;;;;;6.68;2.70;;;;;;;22.31;59.76;101979.03;5004346;28;20037;-50
2023/10/07 03:40:55;;;;;;;8.27;2.90;;;;;;;22.30;59.93;101971.91;5004077;28;20083;-48
2023/10/07 03:43:30;;;;;;;6.72;2.85;;;;;;;22.30;59.88;101983.56;5018954;28;20041;-45
2023/10/07 03:45:56;;;;;;;8.15;3.15;;;;;;;22.27;60.15;101979.25;5004652;28;20788;-44
2023/10/07 03:48:23;;;;;;;7.53;2.80;;;;;;;22.24;60.12;101982.19;5004264;28;21444;-47
2023/10/07 03:51:08;;;;;;;7.03;2.78;;;;;;;22.26;59.88;101979.38;5001969;28;20107;-47
2023/10/07 03:53:46;;;;;;;7.57;2.88;;;;;;;22.24;60.27;101992.16;5002957;28;20060;-46
2023/10/07 03:56:15;;;;;;;7.20;2.75;;;;;;;22.26;60.10;101984.78;5003849;28;20036;-51
2023/10/07 03:58:41;;;;;;;7.55;2.80;;;;;;;22.24;60.28;101976.81;5003772;28;20856;-47
2023/10/07 04:01:17;;;;;;;6.57;2.63;;;;;;;22.27;60.19;101981.09;5002795;28;20355;-49
2023/10/07 04:03:52;;;;;;;5.50;2.40;;;;;;;22.24;60.26;101987.59;5003472;28;20450;-49
2023/10/07 04:06:27;;;;;;;7.05;3.10;;;;;;;22.25;59.94;101983.03;5003269;28;21417;-48
2023/10/07 04:08:56;;;;;;;8.10;2.78;;;;;;;22.23;60.26;101972.38;5002195;28;20052;-47
2023/10/07 04:11:26;;;;;;;6.50;2.65;;;;;;;22.24;60.15;101965.16;5003496;28;20029;-51
2023/10/07 04:13:53;;;;;;;5.85;2.53;;;;;;;22.24;60.13;101966.00;5018432;28;20036;-51
2023/10/07 04:16:24;;;;;;;6.63;2.72;;;;;;;22.24;60.27;101967.88;5005065;28;20029;-51
2023/10/07 04:18:51;;;;;;;6.97;2.63;;;;;;;22.24;60.22;101954.38;5018478;28;20029;-50
2023/10/07 04:21:17;;;;;;;5.68;2.70;;;;;;;22.24;59.93;101966.00;5036293;28;20543;-51
2023/10/07 04:23:44;;;;;;;7.47;2.70;;;;;;;22.24;60.04;101951.66;5002309;28;20025;-53
2023/10/07 04:26:11;;;;;;;6.00;2.58;;;;;;;22.23;60.12;101950.78;5004822;28;20033;-52
2023/10/07 04:28:40;;;;;;;7.30;2.63;;;;;;;22.21;60.56;101957.28;5002349;28;20741;-48
2023/10/07 04:31:11;;;;;;;6.93;2.65;;;;;;;22.18;60.89;101961.06;5001027;28;21530;-48
2023/10/07 04:33:41;;;;;;;6.72;2.80;;;;;;;22.17;60.96;101962.03;5002616;28;20037;-48
2023/10/07 04:36:13;;;;;;;6.57;2.60;;;;;;;22.17;60.77;101947.72;5003558;28;20057;-47
2023/10/07 04:38:52;;;;;;;6.85;2.80;;;;;;;22.17;60.70;101945.00;5002589;28;20091;-47
2023/10/07 04:46:24;;;;;;;6.55;2.58;;;;;;;22.17;60.70;101956.66;5002469;28;20486;-47
2023/10/07 04:48:56;;;;;;;6.47;2.67;;;;;;;22.17;60.89;101947.72;5000759;28;20037;-50
2023/10/07 04:53:58;;;;;;;8.05;2.70;;;;;;;22.17;60.77;101943.16;5002046;28;20065;-48
2023/10/07 04:56:31;;;;;;;6.97;2.63;;;;;;;22.16;60.45;101941.47;5034362;28;20050;-47
2023/10/07 04:59:00;;;;;;;6.63;2.97;;;;;;;22.16;60.75;101937.91;5002054;28;20040;-45
2023/10/07 05:01:33;;;;;;;6.07;2.50;;;;;;;22.16;60.57;101948.69;5003480;28;20040;-44
2023/10/07 05:04:04;;;;;;;5.60;2.65;;;;;;;22.15;60.88;101952.34;5002067;28;20153;-47
2023/10/07 05:06:35;;;;;;;5.70;2.20;;;;;;;22.13;60.84;101943.53;5034275;28;20037;-45
2023/10/07 05:09:09;;;;;;;;;;;;;;;22.14;60.88;101951.50;5001441;28;20065;-45
2023/10/07 05:11:40;;;;;;;6.25;2.58;;;;;;;22.13;60.91;101957.88;5000766;28;19982;-46
2023/10/07 05:14:10;;;;;;;6.57;2.60;;;;;;;22.11;61.03;101967.94;5001513;28;20178;-45
2023/10/07 05:16:37;;;;;;;6.60;2.70;;;;;;;22.14;60.85;101967.69;5001796;28;20549;-49
2023/10/07 05:19:03;;;;;;;7.40;2.60;;;;;;;22.12;61.02;101979.56;5001399;28;20033;-45
2023/10/07 05:21:31;;;;;;;8.05;2.72;;;;;;;22.11;61.21;101981.44;5001881;28;20040;-45
2023/10/07 05:24:01;;;;;;;7.97;2.88;;;;;;;22.12;61.09;101985.81;5001691;28;20048;-44
2023/10/07 05:26:27;;;;;;;6.82;2.88;;;;;;;22.12;61.15;101966.94;5001033;28;21416;-46
2023/10/07 05:28:53;;;;;;;7.95;2.80;;;;;;;22.11;61.03;101962.53;5001676;28;20079;-46
2023/10/07 05:31:18;;;;;;;7.70;2.90;;;;;;;22.09;61.42;101964.50;5001529;28;20037;-45
2023/10/07 05:33:44;;;;;;;5.63;2.42;;;;;;;22.09;61.13;101962.63;5016515;28;20037;-46
2023/10/07 05:36:13;;;;;;;6.65;2.75;;;;;;;22.12;60.96;101971.47;5001623;28;20044;-46
2023/10/07 05:38:45;;;;;;;5.70;2.67;;;;;;;22.10;61.02;101975.16;5001033;28;20079;-45
2023/10/07 05:41:14;;;;;;;8.35;2.80;;;;;;;22.09;61.30;101983.38;5032871;28;20032;-47
2023/10/07 05:43:44;;;;;;;6.18;2.47;;;;;;;22.09;61.15;101984.22;5016467;28;20037;-46
2023/10/07 05:46:13;;;;;;;7.93;3.00;;;;;;;22.08;61.43;101978.94;5001728;28;20044;-47
2023/10/07 05:48:40;;;;;;;8.18;2.65;;;;;;;22.08;61.22;101987.91;5001949;28;20053;-45
2023/10/07 05:51:09;;;;;;;7.22;2.70;;;;;;;22.08;61.07;101977.13;4998492;28;20624;-44
2023/10/07 05:53:39;;;;;;;5.82;2.58;;;;;;;22.06;61.34;101975.53;5003235;28;20126;-46
2023/10/07 05:56:06;;;;;;;6.03;2.83;;;;;;;22.07;61.47;101961.91;5001682;28;21152;-45
2023/10/07 05:58:36;;;;;;;6.95;2.78;;;;;;;22.07;61.44;101969.13;5001647;28;20033;-45
2023/10/07 06:01:05;;;;;;;6.30;2.80;;;;;;;22.09;61.21;101969.88;4995147;28;20493;-43
2023/10/07 06:03:32;;;;;;;6.15;2.60;;;;;;;22.05;61.84;101966.56;5002536;28;20529;-44
2023/10/07 06:05:58;;;;;;;7.85;3.00;;;;;;;22.03;61.79;101970.34;5002361;28;20021;-44
2023/10/07 06:08:28;;;;;;;5.32;2.50;;;;;;;22.05;61.90;101965.69;5001120;28;20029;-47
2023/10/07 06:10:56;;;;;;;7.20;2.97;;;;;;;22.05;61.58;101969.25;5004048;28;20513;-46
2023/10/07 06:13:28;;;;;;;6.20;2.97;;;;;;;22.03;61.86;101979.28;5005922;28;20025;-48
2023/10/07 06:15:58;;;;;;;8.73;2.53;;;;;;;22.01;62.16;101964.19;5006254;28;20985;-45
2023/10/07 06:18:25;;;;;;;6.57;2.95;;;;;;;22.01;61.94;101959.69;5004554;28;20036;-47
2023/10/07 06:20:52;;;;;;;6.53;3.00;;;;;;;22.01;62.00;101965.06;5004194;28;20048;-46
2023/10/07 06:23:19;;;;;;;7.85;2.75;;;;;;;22.04;61.84;101959.44;5020591;28;20034;-49
2023/10/07 06:25:49;;;;;;;7.32;2.88;;;;;;;22.02;62.15;101952.44;5006092;28;20333;-46
2023/10/07 06:31:10;;;;;;;14.35;3.00;;;;;;;22.16;61.81;101938.78;5004240;28;20045;-48
2023/10/07 06:34:03;;;;;;;10.23;3.22;;;;;;;22.24;62.56;101941.72;5005285;28;20033;-45
2023/10/07 06:36:32;;;;;;;8.98;2.90;;;;;;;22.33;63.06;101950.06;5006007;28;20031;-47
2023/10/07 06:39:07;;;;;;;10.20;2.97;;;;;;;22.37;62.80;101947.06;5004909;28;20025;-45
2023/10/07 06:41:34;;;;;;;10.23;3.53;;;;;;;22.39;62.88;101945.13;5004753;28;20526;-44
2023/10/07 06:44:02;;;;;;;9.80;3.17;;;;;;;22.44;63.02;101960.94;5004841;28;20521;-45
2023/10/07 06:46:29;;;;;;;9.63;3.22;;;;;;;22.45;63.01;101968.06;5006275;28;20457;-45
2023/10/07 06:48:55;;;;;;;8.40;3.10;;;;;;;22.44;63.21;101981.69;5004176;28;20252;-45
2023/10/07 06:51:23;;;;;;;7.22;3.25;;;;;;;22.47;63.07;101998.50;5004291;28;21344;-45
2023/10/07 06:53:49;;;;;;;8.57;2.97;;;;;;;22.51;63.19;101988.31;5004752;28;20123;-46
2023/10/07 06:56:21;;;;;;;8.25;3.10;;;;;;;22.54;62.89;101994.31;5004111;28;20044;-46
2023/10/07 06:58:53;;;;;;;8.02;3.03;;;;;;;22.54;62.83;101988.94;5004045;28;20610;-45
2023/10/07 07:01:35;;;;;;;11.05;3.63;;;;;;;22.57;62.73;101983.31;5004179;28;21033;-43
2023/10/07 07:04:09;;;;;;;8.70;3.30;;;;;;;22.60;62.71;101987.59;5003808;28;20037;-45
2023/10/07 07:06:42;;;;;;;7.80;3.35;;;;;;;22.62;62.77;101993.72;5005143;28;20043;-45
2023/10/07 07:11:58;;;;;;;10.68;3.33;;;;;;;22.63;62.59;102018.91;5006388;28;20051;-45
2023/10/07 07:14:28;;;;;;;14.68;3.35;;;;;;;22.58;62.66;102011.16;5005607;28;20029;-49
2023/10/07 07:16:57;;;;;;;15.77;3.90;;;;;;;22.53;62.82;102007.94;5006224;28;20033;-47
2023/10/07 07:19:25;;;;;;;16.30;3.40;;;;;;;22.48;62.98;102013.72;5005041;28;20026;-45
2023/10/07 07:21:51;;;;;;;15.02;3.67;;;;;;;22.46;62.62;102029.16;5036412;28;20517;-45
2023/10/07 07:24:25;;;;;;;14.60;3.95;;;;;;;22.46;62.86;102031.00;5003938;28;21421;-46
2023/10/07 07:26:52;;;;;;;10.85;3.40;;;;;;;22.44;62.82;102038.34;5004489;28;20066;-49
2023/10/07 07:29:24;;;;;;;12.95;3.83;;;;;;;22.43;62.96;102034.81;5005211;28;20045;-45
2023/10/07 07:31:50;;;;;;;8.30;3.30;;;;;;;22.46;63.18;102047.22;5003939;28;20044;-45
2023/10/07 07:34:26;;;;;;;9.20;3.15;;;;;;;22.45;62.54;102040.94;5003167;28;20359;-45
2023/10/07 07:37:01;;;;;;;8.93;3.10;;;;;;;22.45;63.01;102045.47;5006090;28;20112;-46
2023/10/07 07:39:30;;;;;;;7.28;3.28;;;;;;;22.44;62.92;102051.84;5033750;28;20041;-47
2023/10/07 07:41:55;;;;;;;10.52;3.47;;;;;;;22.42;62.92;102038.47;5004814;28;20033;-49
2023/10/07 07:44:32;;;;;;;13.00;3.65;;;;;;;22.41;63.17;102036.75;5004154;28;20125;-46
2023/10/07 07:46:59;;;;;;;7.93;3.20;;;;;;;22.41;63.17;102024.09;5003627;28;20563;-46
2023/10/07 07:49:27;;;;;;;10.05;3.58;;;;;;;22.42;63.13;102019.59;5004524;28;20541;-47
2023/10/07 07:52:02;;;;;;;9.93;3.53;;;;;;;22.41;63.27;102015.16;5016411;28;20506;-45
2023/10/07 07:54:41;;;;;;;9.25;2.90;;;;;;;22.40;63.15;102017.00;5056305;28;20037;-47
2023/10/07 07:57:26;;;;;;;10.05;3.08;;;;;;;22.40;63.40;102008.91;5037690;28;20031;-47
2023/10/07 08:00:06;;;;;;;8.15;3.20;;;;;;;22.40;63.40;102011.63;5038184;28;20790;-45
2023/10/07 08:02:35;;;;;;;13.15;3.20;;;;;;;22.45;63.28;102022.03;5010129;28;20036;-47
2023/10/07 08:05:04;;;;;;;8.88;3.40;;;;;;;22.42;63.23;102031.22;5004256;28;20447;-47
2023/10/07 08:07:32;;;;;;;10.25;3.42;;;;;;;22.42;63.32;102024.97;5001516;28;20047;-45
2023/10/07 08:09:58;;;;;;;12.60;3.50;;;;;;;22.43;63.48;102026.72;5003283;28;20033;-47
2023/10/07 08:12:33;;;;;;;8.60;3.00;;;;;;;22.43;63.31;102029.41;5004517;28;20072;-44
2023/10/07 08:15:05;;;;;;;9.15;3.40;;;;;;;22.44;63.22;102033.81;5003033;28;20128;-45
2023/10/07 08:17:30;;;;;;;10.10;3.40;;;;;;;22.45;63.24;102024.72;5001541;28;20623;-50
2023/10/07 08:19:57;;;;;;;9.95;3.20;;;;;;;22.47;63.04;102032.72;5003450;28;20033;-45
2023/10/07 08:22:27;;;;;;;6.18;2.88;;;;;;;22.49;63.27;102022.66;5003060;28;20481;-47
2023/10/07 08:24:52;;;;;;;8.43;3.10;;;;;;;22.49;63.38;102030.75;5003374;28;20551;-51
2023/10/07 08:30:06;;;;;;;26.75;4.55;;;;;;;22.63;63.30;102029.69;5004024;28;20126;-47
2023/10/07 08:32:37;;;;;;;11.30;3.70;;;;;;;22.75;62.93;102036.84;5001727;28;20048;-44
2023/10/07 08:35:03;;;;;;;11.40;3.88;;;;;;;22.84;62.75;102022.63;5003030;28;20544;-45
2023/10/07 08:37:32;;;;;;;8.70;3.15;;;;;;;22.96;62.83;102036.16;5017892;28;20072;-45
2023/10/07 08:40:11;;;;;;;9.32;3.15;;;;;;;23.00;62.60;102040.31;5003107;28;20033;-46
2023/10/07 08:42:44;;;;;;;10.68;3.28;;;;;;;23.05;61.96;102033.56;5002371;28;20052;-44
2023/10/07 08:45:14;;;;;;;12.57;3.20;;;;;;;23.09;62.31;102039.59;5003285;28;20025;-44
2023/10/07 08:47:49;;;;;;;12.60;3.05;;;;;;;23.16;62.18;102042.69;5002889;28;20483;-57
2023/10/07 08:50:19;;;;;;;14.00;3.60;;;;;;;22.93;62.83;102053.47;5005617;28;20449;-41
2023/10/07 08:52:44;;;;;;;9.80;3.28;;;;;;;22.74;63.63;102057.59;5003799;28;20037;-41
2023/10/07 08:55:10;;;;;;;10.48;3.00;;;;;;;22.67;63.84;102048.22;5035488;28;20080;-40
2023/10/07 08:57:36;;;;;;;15.88;3.38;;;;;;;22.67;64.29;102053.63;5002673;28;20036;-55
2023/10/07 09:00:11;;;;;;;15.35;3.03;;;;;;;22.64;65.34;102044.94;5003782;28;20493;-59
2023/10/07 09:02:39;;;;;;;16.60;3.80;;;;;;;22.70;64.82;102042.59;5000962;28;20040;-59
2023/10/07 09:05:16;;;;;;;13.65;3.28;;;;;;;22.74;64.57;102045.94;5002985;28;20049;-59
2023/10/07 09:07:48;;;;;;;12.27;3.42;;;;;;;22.75;64.35;102037.72;5003412;28;20607;-59
2023/10/07 09:10:15;;;;;;;11.05;3.03;;;;;;;22.77;64.66;102037.56;5001991;28;20527;-42
2023/10/07 09:12:50;;;;;;;13.50;3.28;;;;;;;22.80;64.55;102033.78;5017449;28;20137;-42
2023/10/07 09:15:25;;;;;;;13.98;3.22;;;;;;;22.81;64.31;102025.56;5003079;28;20037;-57
2023/10/07 09:18:17;;;;;;;12.07;3.25;;;;;;;22.82;64.54;102027.28;5002481;28;20025;-56
2023/10/07 09:20:50;;;;;;;8.32;3.08;;;;;;;22.81;64.19;102025.56;5003637;28;20045;-55
2023/10/07 09:23:19;;;;;;;13.70;3.67;;;;;;;22.83;64.73;102034.41;5002769;28;20971;-43
2023/10/07 09:25:52;;;;;;;9.23;3.05;;;;;;;22.88;64.24;102040.31;5003142;28;21240;-45
2023/10/07 09:28:19;;;;;;;11.13;3.28;;;;;;;22.93;64.16;102037.25;5002476;28;20046;-41
2023/10/07 09:30:45;;;;;;;8.48;3.05;;;;;;;22.95;63.98;102053.34;5003203;28;20025;-41
2023/10/07 09:33:17;;;;;;;8.32;3.08;;;;;;;22.99;63.60;102054.81;5001992;28;20639;-57
2023/10/07 09:35:44;;;;;;;9.38;3.65;;;;;;;23.02;63.39;102062.69;5003577;28;20029;-57
2023/10/07 09:38:14;;;;;;;8.32;3.42;;;;;;;23.03;63.44;102070.66;5001560;28;20032;-56
2023/10/07 09:43:29;;;;;;;9.57;3.30;;;;;;;23.07;63.59;102066.72;5001479;28;20889;-54
2023/10/07 09:45:58;;;;;;;6.85;3.10;;;;;;;23.07;63.53;102074.00;5005871;28;20925;-56
2023/10/07 09:48:30;;;;;;;9.05;3.33;;;;;;;23.13;63.32;102075.34;5004968;28;20528;-54
2023/10/07 09:50:58;;;;;;;9.27;3.00;;;;;;;23.14;62.88;102077.91;5037910;28;20060;-42
2023/10/07 09:53:42;;;;;;;11.25;3.00;;;;;;;23.11;62.89;102074.59;5007132;28;20063;-40
2023/10/07 09:56:33;;;;;;;8.32;3.40;;;;;;;23.13;62.93;102072.63;5007747;28;20067;-41
2023/10/07 09:59:17;;;;;;;9.75;3.42;;;;;;;23.14;62.79;102074.34;5006536;28;20034;-55
2023/10/07 10:02:25;;;;;;;11.52;3.03;;;;;;;23.13;63.02;102076.19;5006155;28;20032;-46
2023/10/07 10:05:25;;;;;;;8.25;3.17;;;;;;;23.19;63.17;102066.78;5007016;28;20815;-43
2023/10/07 10:08:19;;;;;;;8.75;3.08;;;;;;;23.20;63.19;102055.00;5006692;28;20045;-43
2023/10/07 10:10:45;;;;;;;7.20;2.88;;;;;;;23.20;62.97;102053.13;5005685;28;20560;-43
2023/10/07 10:13:51;;;;;;;11.43;3.67;;;;;;;23.23;62.79;102047.47;5005653;28;21026;-55
2023/10/07 10:16:18;;;;;;;8.68;3.50;;;;;;;23.30;62.76;102060.50;5006396;28;20050;-54
2023/10/07 10:18:50;;;;;;;11.00;3.78;;;;;;;23.24;62.79;102049.22;5004801;28;20046;-58
2023/10/07 10:21:21;;;;;;;13.15;3.88;;;;;;;23.24;62.77;102056.47;5006469;28;20473;-58
2023/10/07 10:23:51;;;;;;;9.93;4.25;;;;;;;23.23;62.91;102058.28;5006111;28;20513;-58
2023/10/07 10:26:22;;;;;;;13.80;4.00;;;;;;;23.22;62.26;102045.78;5038504;28;20752;-58
2023/10/07 10:28:59;;;;;;;;;;;;;;;23.22;62.48;102062.00;5006105;28;20585;-58
2023/10/07 10:31:32;;;;;;;15.07;4.57;;;;;;;23.26;62.30;102059.03;5006029;28;20025;-57
2023/10/07 10:34:08;;;;;;;15.23;5.15;;;;;;;23.26;62.55;102070.69;5006373;28;20041;-57
2023/10/07 10:36:43;;;;;;;15.75;5.88;;;;;;;23.26;62.78;102075.25;5005418;28;20041;-58
2023/10/07 10:39:31;;;;;;;16.75;6.03;;;;;;;23.28;62.66;102078.72;5005908;28;20047;-58
2023/10/07 10:42:09;;;;;;;18.83;5.68;;;;;;;23.26;62.24;102078.81;5005855;28;20480;-58
2023/10/07 10:44:46;;;;;;;15.68;5.30;;;;;;;23.26;62.26;102084.22;5004029;28;20065;-58
2023/10/07 10:47:15;;;;;;;16.33;5.93;;;;;;;23.29;62.24;102086.69;5006045;28;20037;-59
2023/10/07 10:49:43;;;;;;;22.30;6.13;;;;;;;23.28;62.19;102079.56;5005356;28;20037;-58
2023/10/07 10:52:10;;;;;;;22.23;6.07;;;;;;;23.33;62.17;102093.56;5036108;28;20953;-58
2023/10/07 10:54:36;;;;;;;18.17;6.35;;;;;;;23.33;61.97;102095.41;5004499;28;20045;-58
2023/10/07 10:57:05;;;;;;;19.80;5.75;;;;;;;23.35;61.85;102098.84;5004734;28;20480;-58
2023/10/07 10:59:42;;;;;;;21.83;6.40;;;;;;;23.35;61.85;102088.91;5004965;28;20520;-58
2023/10/07 11:02:09;;;;;;;19.52;6.40;;;;;;;23.36;61.90;102082.53;5005727;28;20048;-57
2023/10/07 11:04:34;;;;;;;16.70;5.60;;;;;;;23.37;61.66;102089.63;5004677;28;20033;-57
2023/10/07 11:07:00;;;;;;;19.40;6.20;;;;;;;23.40;62.05;102091.22;5005396;28;20447;-57
2023/10/07 11:09:26;;;;;;;21.08;6.05;;;;;;;23.42;62.16;102100.06;5005326;28;20033;-40
2023/10/07 11:11:55;;;;;;;14.35;5.10;;;;;;;23.43;61.67;102090.13;5020465;28;20159;-43
2023/10/07 11:14:23;;;;;;;16.83;5.45;;;;;;;23.45;62.14;102102.53;5005913;28;20553;-47
2023/10/07 11:16:50;;;;;;;14.43;5.40;;;;;;;23.47;61.69;102094.31;5005534;28;20045;-57
2023/10/07 11:19:16;;;;;;;16.02;5.53;;;;;;;23.49;61.73;102103.16;5005043;28;20032;-57
2023/10/07 11:21:45;;;;;;;13.77;5.13;;;;;;;23.51;61.73;102093.94;5005801;28;20031;-57
2023/10/07 11:24:22;;;;;;;15.27;4.95;;;;;;;23.50;61.93;102105.72;5005612;28;20033;-57
2023/10/07 11:26:49;;;;;;;13.00;4.45;;;;;;;23.50;61.89;102094.91;5004153;28;20147;-41
2023/10/07 11:29:15;;;;;;;13.65;4.90;;;;;;;23.51;61.80;102104.75;5005034;28;20222;-42
2023/10/07 11:31:41;;;;;;;13.55;4.88;;;;;;;23.53;61.75;102110.03;5004438;28;20029;-43
2023/10/07 11:34:08;;;;;;;13.63;4.68;;;;;;;23.52;61.21;102089.41;5001005;28;20041;-41
2023/10/07 11:36:43;;;;;;;14.15;6.10;;;;;;;23.52;61.64;102090.25;5005034;28;20452;-41
2023/10/07 11:39:09;;;;;;;16.27;7.03;;;;;;;23.52;61.57;102098.34;5005058;28;20083;-42
2023/10/07 11:41:36;;;;;;;16.38;8.10;;;;;;;23.52;61.79;102103.75;5005101;28;20511;-41
2023/10/07 11:44:03;;;;;;;13.98;8.30;;;;;;;23.53;61.38;102110.03;5002767;28;20037;-57
2023/10/07 11:46:29;;;;;;;15.00;8.85;;;;;;;23.53;61.51;102108.19;5004999;28;20057;-57
2023/10/07 11:48:56;;;;;;;15.75;9.10;;;;;;;23.53;61.63;102120.84;5004756;28;20849;-42
2023/10/07 11:51:23;;;;;;;14.88;9.55;;;;;;;23.53;61.75;102120.84;5005232;28;20041;-40
2023/10/07 11:53:50;;;;;;;14.98;9.32;;;;;;;23.52;61.48;102113.72;5005105;28;20119;-41
2023/10/07 11:56:15;;;;;;;14.15;8.93;;;;;;;23.51;61.69;102112.84;5004529;28;20032;-41
2023/10/07 11:58:42;;;;;;;17.50;9.77;;;;;;;23.54;61.35;102125.25;5001112;28;20591;-58
2023/10/07 12:01:07;;;;;;;15.32;9.77;;;;;;;23.52;61.40;102119.97;5004194;28;20095;-43
2023/10/07 12:03:34;;;;;;;14.32;8.95;;;;;;;23.52;61.89;102111.88;5035783;28;20041;-42
2023/10/07 12:05:59;;;;;;;15.88;9.70;;;;;;;23.51;61.25;102118.25;5004315;28;20033;-58
2023/10/07 12:08:25;;;;;;;15.40;9.65;;;;;;;23.52;61.51;102116.44;5003608;28;20469;-57
2023/10/07 12:10:51;;;;;;;13.60;9.45;;;;;;;23.49;61.50;102116.66;5019473;28;20334;-44